Time;durP1;ratioP1;P1;durP2;ratioP2;P2;SDS_P1;SDS_P2;PMS_P1;PMS_P2;Temp;Humidity;BMP_temperature;BMP_pressure;BME280_temperature;BME280_humidity;BME280_pressure;Samples;Min_cycle;Max_cycle;Signal;HPM_P1;HPM_P2
2020/12/14 00:00:20;;;;;;;14.70;10.20;;;5.40;99.90;;;;;;5081710;28;20458;-90
2020/12/14 00:02:46;;;;;;;10.40;9.30;;;5.40;99.90;;;;;;5077702;28;20475;-91
2020/12/14 00:05:14;;;;;;;10.10;9.10;;;5.30;99.90;;;;;;5081915;28;20447;-91
2020/12/14 00:07:40;;;;;;;9.83;8.93;;;5.30;99.90;;;;;;5075125;28;20536;-91
2020/12/14 00:10:08;;;;;;;11.20;9.63;;;5.30;99.90;;;;;;5081641;28;20463;-91
2020/12/14 00:12:34;;;;;;;9.20;8.30;;;5.30;99.90;;;;;;5093726;28;20446;-91
2020/12/14 00:15:01;;;;;;;10.33;9.27;;;5.30;99.90;;;;;;5083833;28;20461;-92
2020/12/14 00:17:27;;;;;;;9.37;8.40;;;5.20;99.90;;;;;;5106053;28;20443;-91
2020/12/14 00:19:53;;;;;;;12.90;10.20;;;5.20;99.90;;;;;;5080419;28;20508;-91
2020/12/14 00:22:19;;;;;;;11.90;9.37;;;5.10;99.90;;;;;;5080357;28;20482;-91
2020/12/14 00:24:45;;;;;;;10.37;9.33;;;5.00;99.90;;;;;;5075444;28;20517;-91
2020/12/14 00:27:12;;;;;;;10.43;9.13;;;5.00;99.90;;;;;;5082544;28;20939;-91
2020/12/14 00:29:39;;;;;;;15.60;8.80;;;5.00;99.90;;;;;;5081097;28;20467;-91
2020/12/14 00:32:05;;;;;;;9.90;8.90;;;5.00;99.90;;;;;;5078651;28;20854;-91
2020/12/14 00:34:31;;;;;;;12.53;10.50;;;5.00;99.90;;;;;;5078241;28;20503;-91
2020/12/14 00:36:57;;;;;;;9.60;8.60;;;5.00;99.90;;;;;;5078507;28;20965;-92
2020/12/14 00:39:23;;;;;;;10.53;9.43;;;5.00;99.90;;;;;;5081272;28;20506;-91
2020/12/14 00:41:49;;;;;;;11.00;9.90;;;4.90;99.90;;;;;;5078039;28;20436;-91
2020/12/14 00:44:16;;;;;;;11.20;9.07;;;5.00;99.90;;;;;;5080308;28;20443;-91
2020/12/14 00:46:44;;;;;;;11.43;10.23;;;5.10;99.90;;;;;;5079240;28;20850;-91
2020/12/14 00:49:11;;;;;;;10.70;8.90;;;5.10;99.90;;;;;;5079266;28;20447;-91
2020/12/14 00:51:37;;;;;;;11.93;8.77;;;5.00;99.90;;;;;;5079752;28;20494;-91
2020/12/14 00:54:03;;;;;;;10.63;8.73;;;5.00;99.90;;;;;;5076812;28;20496;-92
2020/12/14 00:56:29;;;;;;;10.97;9.83;;;5.00;99.90;;;;;;5081352;28;20464;-92
2020/12/14 00:58:55;;;;;;;10.43;8.67;;;4.90;99.90;;;;;;5079118;28;20565;-90
2020/12/14 01:01:22;;;;;;;11.83;8.90;;;4.90;99.90;;;;;;5082142;28;21023;-91
2020/12/14 01:03:48;;;;;;;13.07;7.43;;;4.90;99.90;;;;;;5079387;28;21078;-91
2020/12/14 01:06:15;;;;;;;9.30;8.00;;;4.80;99.90;;;;;;5077837;28;20962;-92
2020/12/14 01:08:42;;;;;;;8.33;7.53;;;4.90;99.90;;;;;;5077037;28;20448;-92
2020/12/14 01:11:09;;;;;;;10.60;9.63;;;4.80;99.90;;;;;;5080138;28;20951;-90
2020/12/14 01:13:35;;;;;;;9.93;8.80;;;4.80;99.90;;;;;;5078299;28;20450;-90
2020/12/14 01:16:02;;;;;;;10.10;9.00;;;4.80;99.90;;;;;;5081342;28;20439;-89
2020/12/14 01:18:29;;;;;;;10.30;8.20;;;4.80;99.90;;;;;;5084009;28;20450;-91
2020/12/14 01:20:55;;;;;;;9.47;8.40;;;4.80;99.90;;;;;;5085866;28;20491;-91
2020/12/14 01:23:22;;;;;;;10.60;9.20;;;4.90;99.90;;;;;;5086340;28;20523;-90
2020/12/14 01:25:48;;;;;;;10.10;9.10;;;4.80;99.90;;;;;;5082407;28;20450;-91
2020/12/14 01:28:14;;;;;;;10.17;9.17;;;4.80;99.90;;;;;;5081886;28;20439;-90
2020/12/14 01:30:40;;;;;;;13.80;9.13;;;4.80;99.90;;;;;;5082469;28;20475;-91
2020/12/14 01:33:06;;;;;;;13.20;10.17;;;4.70;99.90;;;;;;5081540;28;20947;-91
2020/12/14 01:35:33;;;;;;;10.00;9.00;;;4.60;99.90;;;;;;5077588;28;20469;-91
2020/12/14 01:38:00;;;;;;;10.83;9.30;;;4.60;99.90;;;;;;5083118;28;20488;-91
2020/12/14 01:40:26;;;;;;;10.47;9.13;;;4.60;99.90;;;;;;5081594;28;20447;-91
2020/12/14 01:42:52;;;;;;;9.63;8.63;;;4.50;99.90;;;;;;5080413;28;20971;-91
2020/12/14 01:45:19;;;;;;;11.20;10.10;;;4.50;99.90;;;;;;5077858;28;20457;-90
2020/12/14 01:47:48;;;;;;;9.83;8.80;;;4.60;99.90;;;;;;5080453;28;20540;-91
2020/12/14 01:50:14;;;;;;;12.90;11.37;;;4.60;99.90;;;;;;5082871;28;20457;-91
2020/12/14 01:52:44;;;;;;;12.60;10.17;;;4.60;99.90;;;;;;5081369;28;20439;-90
2020/12/14 01:55:14;;;;;;;15.30;10.67;;;4.60;99.90;;;;;;5084900;28;20439;-91
2020/12/14 01:57:40;;;;;;;12.20;9.93;;;4.50;99.90;;;;;;5084944;28;20442;-91
2020/12/14 02:00:07;;;;;;;12.07;10.87;;;4.60;99.90;;;;;;5083395;28;20459;-91
2020/12/14 02:02:34;;;;;;;13.67;9.70;;;4.50;99.90;;;;;;5080705;28;20482;-91
2020/12/14 02:05:00;;;;;;;11.10;10.07;;;4.50;99.90;;;;;;5085633;28;20431;-91
2020/12/14 02:07:27;;;;;;;11.50;9.00;;;4.40;99.90;;;;;;5079355;28;20472;-91
2020/12/14 02:09:54;;;;;;;10.53;9.17;;;4.50;99.90;;;;;;5085081;28;20458;-90
2020/12/14 02:12:22;;;;;;;14.00;9.63;;;4.50;99.90;;;;;;5073538;28;20447;-90
2020/12/14 02:14:52;;;;;;;11.57;10.20;;;4.50;99.90;;;;;;5083517;28;20485;-90
2020/12/14 02:17:19;;;;;;;11.93;10.73;;;4.40;99.90;;;;;;5082272;28;20439;-91
2020/12/14 02:19:46;;;;;;;12.70;10.47;;;4.40;99.90;;;;;;5082258;28;20446;-91
2020/12/14 02:22:15;;;;;;;12.30;10.37;;;4.40;99.90;;;;;;5080764;28;20483;-90
2020/12/14 02:24:45;;;;;;;10.57;9.57;;;4.40;99.90;;;;;;5082458;28;20448;-91
2020/12/14 02:27:13;;;;;;;11.70;9.20;;;4.40;99.90;;;;;;5074697;28;20458;-92
2020/12/14 02:29:42;;;;;;;11.87;9.27;;;4.50;99.90;;;;;;5077531;28;20471;-91
2020/12/14 02:32:11;;;;;;;9.30;8.40;;;4.50;99.90;;;;;;5090726;28;20510;-91
2020/12/14 02:34:39;;;;;;;10.03;8.90;;;4.60;99.90;;;;;;5108118;28;20438;-92
2020/12/14 02:37:07;;;;;;;10.63;9.43;;;4.50;99.90;;;;;;5084356;28;20508;-91
2020/12/14 02:39:33;;;;;;;10.80;9.80;;;4.50;99.90;;;;;;5079416;28;20471;-90
2020/12/14 02:42:00;;;;;;;10.40;9.40;;;4.50;99.90;;;;;;5081994;28;20442;-91
2020/12/14 02:44:26;;;;;;;10.53;8.70;;;4.40;99.90;;;;;;5084805;28;20434;-91
2020/12/14 02:46:53;;;;;;;13.27;9.03;;;4.50;99.90;;;;;;5071457;28;21055;-91
2020/12/14 02:49:19;;;;;;;12.73;9.67;;;4.50;99.90;;;;;;5080701;28;21033;-91
2020/12/14 02:51:45;;;;;;;10.23;9.20;;;4.50;99.90;;;;;;5079078;28;20447;-92
2020/12/14 02:54:12;;;;;;;11.27;9.23;;;4.60;99.90;;;;;;5079287;28;20451;-91
2020/12/14 02:56:43;;;;;;;10.73;9.63;;;4.50;99.90;;;;;;5078084;28;20926;-90
2020/12/14 02:59:10;;;;;;;14.20;10.90;;;4.50;99.90;;;;;;5078879;28;20874;-92
2020/12/14 03:01:36;;;;;;;10.50;9.40;;;4.60;99.90;;;;;;5081657;28;20528;-90
2020/12/14 03:04:02;;;;;;;11.13;9.47;;;4.50;99.90;;;;;;5083742;28;20479;-91
2020/12/14 03:06:28;;;;;;;12.13;8.80;;;4.50;99.90;;;;;;5079325;28;21224;-91
2020/12/14 03:08:54;;;;;;;13.67;11.10;;;4.50;99.90;;;;;;5083614;28;20431;-90
2020/12/14 03:11:21;;;;;;;13.23;11.77;;;4.40;99.90;;;;;;5079803;28;20455;-90
2020/12/14 03:13:47;;;;;;;13.47;11.30;;;4.40;99.90;;;;;;5080159;28;20855;-91
2020/12/14 03:16:14;;;;;;;13.97;11.30;;;4.40;99.90;;;;;;5082122;28;21814;-91
2020/12/14 03:18:40;;;;;;;11.60;10.40;;;4.40;99.90;;;;;;5082088;28;20943;-91
2020/12/14 03:21:06;;;;;;;12.40;10.40;;;4.30;99.90;;;;;;5083752;28;20466;-91
2020/12/14 03:23:33;;;;;;;11.97;10.40;;;4.30;99.90;;;;;;5075445;28;20832;-91
2020/12/14 03:25:59;;;;;;;11.73;9.77;;;4.30;99.90;;;;;;5080363;28;20446;-90
2020/12/14 03:28:25;;;;;;;11.43;10.20;;;4.30;99.90;;;;;;5084170;28;20446;-90
2020/12/14 03:30:51;;;;;;;11.77;8.90;;;4.30;99.90;;;;;;5078212;28;20462;-91
2020/12/14 03:33:19;;;;;;;11.43;9.30;;;4.30;99.90;;;;;;5075919;28;20451;-91
2020/12/14 03:35:47;;;;;;;9.63;8.63;;;4.20;99.90;;;;;;5078943;28;20443;-90
2020/12/14 03:38:13;;;;;;;13.97;10.10;;;4.20;99.90;;;;;;5078304;28;20447;-91
2020/12/14 03:40:40;;;;;;;11.07;8.80;;;4.20;99.90;;;;;;5081662;28;21247;-91
2020/12/14 03:43:06;;;;;;;11.57;9.20;;;4.10;99.90;;;;;;5079987;28;20474;-89
2020/12/14 03:45:32;;;;;;;10.77;8.63;;;4.10;99.90;;;;;;5081535;28;20457;-89
2020/12/14 03:47:58;;;;;;;11.17;8.20;;;4.00;99.90;;;;;;5076825;28;20508;-91
2020/12/14 03:50:25;;;;;;;8.73;7.83;;;4.20;99.90;;;;;;5079373;28;20455;-91
2020/12/14 03:52:51;;;;;;;9.90;8.57;;;4.20;99.90;;;;;;5079503;28;20448;-91
2020/12/14 03:55:18;;;;;;;10.40;9.40;;;4.20;99.90;;;;;;5079603;28;20447;-91
2020/12/14 03:57:44;;;;;;;13.10;10.37;;;4.20;99.90;;;;;;5076704;28;20504;-91
2020/12/14 04:00:10;;;;;;;14.13;10.13;;;4.10;99.90;;;;;;5077927;28;20827;-90
2020/12/14 04:02:36;;;;;;;11.77;10.30;;;4.10;99.90;;;;;;5076273;28;20475;-90
2020/12/14 04:05:03;;;;;;;11.97;10.20;;;4.10;99.90;;;;;;5081673;28;20492;-91
2020/12/14 04:07:30;;;;;;;14.87;10.40;;;4.10;99.90;;;;;;5078675;28;20459;-91
2020/12/14 04:09:56;;;;;;;11.97;10.73;;;4.00;99.90;;;;;;5081362;28;21224;-91
2020/12/14 04:12:22;;;;;;;13.60;10.00;;;4.00;99.90;;;;;;5073994;28;20515;-91
2020/12/14 04:14:48;;;;;;;17.40;11.90;;;4.00;99.90;;;;;;5079319;28;20439;-91
2020/12/14 04:17:14;;;;;;;11.87;10.40;;;4.00;99.90;;;;;;5079049;28;20785;-91
2020/12/14 04:19:40;;;;;;;12.23;10.83;;;4.00;99.90;;;;;;5084564;28;20468;-91
2020/12/14 04:22:07;;;;;;;14.03;11.10;;;4.00;99.90;;;;;;5080890;28;20458;-91
2020/12/14 04:24:35;;;;;;;14.03;10.87;;;4.00;99.90;;;;;;5081345;28;20522;-91
2020/12/14 04:27:01;;;;;;;13.37;10.97;;;4.10;99.90;;;;;;5077636;28;20870;-91
2020/12/14 04:29:27;;;;;;;15.47;11.27;;;4.00;99.90;;;;;;5082944;28;20447;-91
2020/12/14 04:31:54;;;;;;;18.30;13.13;;;4.00;99.90;;;;;;5079197;28;20441;-91
2020/12/14 04:34:20;;;;;;;16.20;13.73;;;3.90;99.90;;;;;;5076504;28;20515;-91
2020/12/14 04:36:47;;;;;;;17.63;13.07;;;3.80;99.90;;;;;;5079526;28;20822;-91
2020/12/14 04:39:13;;;;;;;15.90;12.80;;;3.80;99.90;;;;;;5084820;28;20868;-91
2020/12/14 04:41:40;;;;;;;18.83;13.97;;;3.90;99.90;;;;;;5079121;28;20454;-91
2020/12/14 04:44:08;;;;;;;18.57;13.80;;;3.90;99.90;;;;;;5093324;28;20485;-91
2020/12/14 04:46:35;;;;;;;16.30;12.40;;;3.80;99.90;;;;;;5092025;28;20439;-91
2020/12/14 04:49:02;;;;;;;16.37;13.33;;;3.70;99.90;;;;;;5106317;28;20430;-91
2020/12/14 04:51:30;;;;;;;15.57;12.40;;;3.70;99.90;;;;;;5091514;28;20454;-91
2020/12/14 04:53:56;;;;;;;20.97;13.47;;;3.80;99.90;;;;;;5081643;28;20446;-91
2020/12/14 04:56:27;;;;;;;16.90;13.50;;;3.80;99.90;;;;;;5080462;28;20470;-90
2020/12/14 04:58:55;;;;;;;20.50;16.70;;;3.80;99.90;;;;;;5087111;28;20927;-91
2020/12/14 05:01:21;;;;;;;19.67;14.73;;;3.80;99.90;;;;;;5080593;28;20460;-91
2020/12/14 05:03:47;;;;;;;18.80;14.17;;;3.70;99.90;;;;;;5079903;28;20477;-91
2020/12/14 05:06:14;;;;;;;19.17;13.40;;;3.70;99.90;;;;;;5084184;28;20944;-91
2020/12/14 05:08:41;;;;;;;16.63;13.10;;;3.70;99.90;;;;;;5079813;28;20447;-92
2020/12/14 05:11:07;;;;;;;18.70;15.30;;;3.70;99.90;;;;;;5083552;28;20474;-90
2020/12/14 05:13:34;;;;;;;16.07;13.83;;;3.70;99.90;;;;;;5079054;28;20449;-90
2020/12/14 05:16:01;;;;;;;19.13;15.40;;;3.70;99.90;;;;;;5083089;28;20466;-89
2020/12/14 05:18:28;;;;;;;20.90;14.60;;;3.60;99.90;;;;;;5084256;28;20520;-89
2020/12/14 05:20:59;;;;;;;21.00;14.30;;;3.50;99.90;;;;;;5082360;28;20454;-89
2020/12/14 05:23:25;;;;;;;19.67;13.87;;;3.50;99.90;;;;;;5082031;28;20540;-90
2020/12/14 05:26:03;;;;;;;16.97;13.27;;;3.50;99.90;;;;;;5083649;28;20443;-90
2020/12/14 05:28:30;;;;;;;17.03;13.20;;;3.40;99.90;;;;;;5084643;28;20550;-90
2020/12/14 05:30:56;;;;;;;20.00;14.57;;;3.50;99.90;;;;;;5082885;28;20454;-90
2020/12/14 05:33:24;;;;;;;22.13;14.60;;;3.40;99.90;;;;;;5083422;28;20192;-91
2020/12/14 05:35:51;;;;;;;20.70;14.10;;;3.30;99.90;;;;;;5082437;28;20929;-90
2020/12/14 05:38:20;;;;;;;17.63;13.23;;;3.40;99.90;;;;;;5083579;28;20448;-90
2020/12/14 05:40:50;;;;;;;19.95;15.27;;;3.30;99.90;;;;;;5085485;28;20533;-90
2020/12/14 05:43:18;;;;;;;21.97;14.07;;;3.30;99.90;;;;;;5083708;28;20242;-90
2020/12/14 05:45:45;;;;;;;20.60;14.88;;;3.20;99.90;;;;;;5085954;28;20441;-90
2020/12/14 05:48:27;;;;;;;19.90;14.63;;;3.20;99.90;;;;;;5083409;28;20207;-90
2020/12/14 05:50:55;;;;;;;17.73;14.10;;;3.20;99.90;;;;;;5080444;28;20466;-90
2020/12/14 05:53:25;;;;;;;21.45;12.95;;;3.20;99.90;;;;;;5075158;28;20450;-90
2020/12/14 05:55:53;;;;;;;23.58;15.68;;;3.20;99.90;;;;;;5079989;28;20249;-91
2020/12/14 05:58:20;;;;;;;19.03;13.67;;;3.20;99.90;;;;;;5078001;28;20187;-90
2020/12/14 06:00:47;;;;;;;16.75;13.27;;;3.30;99.90;;;;;;5081205;28;20535;-90
2020/12/14 06:03:13;;;;;;;22.17;12.60;;;3.20;99.90;;;;;;5082768;28;20611;-90
2020/12/14 06:05:41;;;;;;;17.90;12.70;;;3.20;99.90;;;;;;5079334;28;20477;-89
2020/12/14 06:08:32;;;;;;;19.43;13.00;;;3.20;99.90;;;;;;5080596;28;20541;-90
2020/12/14 06:10:58;;;;;;;19.93;12.97;;;3.20;99.90;;;;;;5082242;28;20538;-90
2020/12/14 06:13:31;;;;;;;24.80;13.10;;;3.30;99.90;;;;;;5081282;28;20530;-90
2020/12/14 06:16:00;;;;;;;16.50;12.40;;;3.20;99.90;;;;;;5083038;28;20600;-90
2020/12/14 06:18:32;;;;;;;16.57;13.30;;;3.30;99.90;;;;;;5082394;28;20530;-89
2020/12/14 06:20:59;;;;;;;21.47;13.70;;;3.30;99.90;;;;;;5082972;28;21061;-89
2020/12/14 06:23:29;;;;;;;19.07;12.43;;;3.30;99.90;;;;;;5079292;28;20533;-91
2020/12/14 06:25:56;;;;;;;27.53;14.37;;;3.20;99.90;;;;;;5083516;28;20929;-90
2020/12/14 06:28:29;;;;;;;19.33;13.37;;;3.20;99.90;;;;;;5080492;28;20438;-90
2020/12/14 06:30:56;;;;;;;18.40;13.23;;;3.20;99.90;;;;;;5079225;28;20504;-90
2020/12/14 06:33:35;;;;;;;18.80;13.53;;;3.20;99.90;;;;;;5082876;28;20446;-90
2020/12/14 06:36:17;;;;;;;19.33;12.67;;;3.20;99.90;;;;;;5084090;28;20491;-89
2020/12/14 06:38:44;;;;;;;14.70;12.03;;;3.30;99.90;;;;;;5079535;28;20471;-90
2020/12/14 06:41:13;;;;;;;12.23;10.83;;;3.30;99.90;;;;;;5085961;28;20455;-90
2020/12/14 06:43:40;;;;;;;14.40;11.40;;;3.40;99.90;;;;;;5083210;28;20526;-91
2020/12/14 06:46:06;;;;;;;15.53;10.70;;;3.40;99.90;;;;;;5083649;28;20456;-90
2020/12/14 06:48:41;;;;;;;13.17;10.57;;;3.40;99.90;;;;;;5080315;28;20447;-90
2020/12/14 06:51:08;;;;;;;13.87;11.20;;;3.40;99.90;;;;;;5079185;28;20542;-90
2020/12/14 06:53:40;;;;;;;17.00;11.93;;;3.40;99.90;;;;;;5083725;28;20458;-91
2020/12/14 06:56:07;;;;;;;17.08;12.85;;;3.50;99.90;;;;;;5067571;28;20454;-90
2020/12/14 06:58:35;;;;;;;16.03;11.57;;;3.50;99.90;;;;;;5083476;28;20195;-90
2020/12/14 07:01:02;;;;;;;20.45;12.23;;;3.50;99.90;;;;;;5086459;28;20469;-90
2020/12/14 07:03:30;;;;;;;18.48;12.98;;;3.50;99.90;;;;;;5101090;28;20231;-91
2020/12/14 07:06:00;;;;;;;15.50;11.20;;;3.60;99.90;;;;;;5095331;28;20206;-90
2020/12/14 07:08:37;;;;;;;14.37;11.60;;;3.60;99.90;;;;;;5081022;28;20281;-90
2020/12/14 07:11:20;;;;;;;17.13;12.23;;;3.50;99.90;;;;;;5083053;28;20467;-91
2020/12/14 07:13:47;;;;;;;13.00;10.87;;;3.50;99.90;;;;;;5078565;28;20429;-91
2020/12/14 07:16:15;;;;;;;17.07;12.20;;;3.50;99.90;;;;;;5077390;28;20437;-90
2020/12/14 07:18:43;;;;;;;14.03;11.30;;;3.60;99.90;;;;;;5080895;28;20878;-91
2020/12/14 07:21:11;;;;;;;13.07;11.00;;;3.60;99.90;;;;;;5079243;28;21036;-90
2020/12/14 07:23:39;;;;;;;17.17;10.47;;;3.70;99.90;;;;;;5080953;28;20520;-91
2020/12/14 07:26:06;;;;;;;18.37;11.10;;;3.70;99.90;;;;;;5078266;28;20850;-91
2020/12/14 07:28:38;;;;;;;14.10;10.47;;;3.80;99.90;;;;;;5069597;28;20452;-90
2020/12/14 07:31:07;;;;;;;17.33;11.57;;;3.80;99.90;;;;;;5081954;28;20468;-90
2020/12/14 07:33:34;;;;;;;15.20;11.37;;;3.80;99.90;;;;;;5081296;28;20492;-90
2020/12/14 07:36:08;;;;;;;14.73;12.03;;;3.80;99.90;;;;;;5081363;28;20501;-90
2020/12/14 07:38:43;;;;;;;15.73;12.03;;;3.90;99.90;;;;;;5079286;28;20462;-90
2020/12/14 07:41:09;;;;;;;17.53;10.70;;;3.90;99.90;;;;;;5078028;28;20535;-92
2020/12/14 07:43:54;;;;;;;16.70;11.30;;;3.90;99.90;;;;;;5082157;28;20474;-92
2020/12/14 07:46:29;;;;;;;12.70;10.47;;;3.90;99.90;;;;;;5077087;28;20490;-92
2020/12/14 07:49:01;;;;;;;16.70;11.50;;;3.90;99.90;;;;;;5072217;28;20511;-90
2020/12/14 07:51:28;;;;;;;13.07;10.70;;;4.00;99.90;;;;;;5077443;28;20552;-91
2020/12/14 07:54:10;;;;;;;15.37;11.33;;;4.00;99.90;;;;;;5081574;28;20447;-91
2020/12/14 07:56:40;;;;;;;16.23;11.70;;;4.10;99.90;;;;;;5080006;28;20451;-92
2020/12/14 07:59:16;;;;;;;14.77;10.73;;;4.20;99.90;;;;;;5079045;28;20808;-90
2020/12/14 08:01:44;;;;;;;13.70;11.83;;;4.20;99.90;;;;;;5078774;28;20462;-90
2020/12/14 08:04:10;;;;;;;17.40;11.07;;;4.30;99.90;;;;;;5080939;28;20991;-90
2020/12/14 08:06:39;;;;;;;16.77;12.13;;;4.30;99.90;;;;;;5080693;28;20450;-89
2020/12/14 08:09:08;;;;;;;16.07;10.77;;;4.40;99.90;;;;;;5084599;28;20482;-90
2020/12/14 08:11:35;;;;;;;16.53;11.47;;;4.40;99.90;;;;;;5074136;28;20819;-90
2020/12/14 08:14:01;;;;;;;15.17;11.50;;;4.50;99.90;;;;;;5077505;28;20473;-90
2020/12/14 08:16:29;;;;;;;13.50;10.90;;;4.50;99.90;;;;;;5078618;28;20966;-90
2020/12/14 08:18:56;;;;;;;13.90;10.20;;;4.60;99.90;;;;;;5086225;28;20502;-89
2020/12/14 08:21:24;;;;;;;15.20;10.27;;;4.60;99.90;;;;;;5071671;28;20494;-89
2020/12/14 08:23:52;;;;;;;16.13;12.67;;;4.70;99.90;;;;;;5063796;28;20487;-90
2020/12/14 08:26:27;;;;;;;13.93;11.17;;;4.70;99.90;;;;;;5050683;28;20440;-89
2020/12/14 08:28:58;;;;;;;12.83;10.87;;;4.80;99.90;;;;;;5053546;28;20967;-90
2020/12/14 08:31:25;;;;;;;14.30;11.00;;;4.80;99.90;;;;;;5052622;28;20481;-90
2020/12/14 08:33:53;;;;;;;14.50;10.00;;;4.90;99.90;;;;;;5057465;28;21200;-90
2020/12/14 08:36:20;;;;;;;14.30;10.10;;;4.90;99.90;;;;;;5070935;28;20971;-90
2020/12/14 08:38:46;;;;;;;13.13;10.87;;;5.00;99.90;;;;;;5065479;28;20447;-90
2020/12/14 08:41:17;;;;;;;13.87;11.77;;;5.00;99.90;;;;;;5051446;28;20468;-89
2020/12/14 08:43:44;;;;;;;16.57;12.03;;;5.10;99.90;;;;;;5055538;28;20512;-89
2020/12/14 08:46:14;;;;;;;13.03;9.07;;;5.10;99.90;;;;;;5074374;28;20799;-90
2020/12/14 08:48:43;;;;;;;12.87;9.97;;;5.80;99.90;;;;;;5067034;28;20452;-90
2020/12/14 08:51:12;;;;;;;18.43;10.90;;;6.10;99.90;;;;;;5051379;28;20464;-90
2020/12/14 08:53:40;;;;;;;12.00;10.20;;;6.20;99.90;;;;;;5053789;28;20512;-91
2020/12/14 08:56:08;;;;;;;12.60;10.40;;;6.50;99.90;;;;;;5070713;28;20443;-91
2020/12/14 08:58:50;;;;;;;14.33;11.00;;;7.10;99.90;;;;;;5068766;28;20452;-90
2020/12/14 09:01:16;;;;;;;12.10;9.83;;;7.10;99.90;;;;;;5051257;28;20546;-90
2020/12/14 09:03:47;;;;;;;12.50;10.70;;;7.00;99.90;;;;;;5052807;28;20548;-90
2020/12/14 09:06:36;;;;;;;13.90;10.83;;;7.00;99.90;;;;;;5085765;28;20454;-90
2020/12/14 09:09:08;;;;;;;12.00;10.80;;;6.90;99.90;;;;;;5065137;28;20447;-90
2020/12/14 09:11:37;;;;;;;12.13;10.83;;;7.00;99.90;;;;;;5071078;28;20491;-91
2020/12/14 09:14:05;;;;;;;15.00;10.90;;;7.20;99.90;;;;;;5054599;28;20976;-91
2020/12/14 09:16:31;;;;;;;14.40;10.60;;;7.20;99.90;;;;;;5053701;28;20766;-89
2020/12/14 09:18:57;;;;;;;12.20;10.20;;;7.20;99.90;;;;;;5053057;28;20505;-85
2020/12/14 09:21:24;;;;;;;14.20;9.57;;;7.50;99.90;;;;;;5063524;28;20452;-85
2020/12/14 09:24:12;;;;;;;11.80;10.37;;;7.60;99.90;;;;;;5066075;28;20475;-86
2020/12/14 09:26:39;;;;;;;15.30;11.60;;;7.40;99.90;;;;;;5070390;28;20447;-86
2020/12/14 09:29:06;;;;;;;12.97;11.13;;;7.30;99.90;;;;;;5055919;28;20789;-85
2020/12/14 09:31:32;;;;;;;14.13;10.70;;;7.30;99.90;;;;;;5050727;28;20461;-85
2020/12/14 09:33:58;;;;;;;13.10;10.03;;;7.30;99.90;;;;;;5063681;28;20440;-85
2020/12/14 09:36:24;;;;;;;13.60;10.03;;;7.40;99.90;;;;;;5073307;28;20500;-89
2020/12/14 09:38:50;;;;;;;10.90;9.50;;;7.50;99.90;;;;;;5063704;28;21108;-93
2020/12/14 09:41:17;;;;;;;9.93;9.00;;;7.60;99.90;;;;;;5054899;28;20494;-92
2020/12/14 09:43:44;;;;;;;9.13;8.20;;;7.80;99.90;;;;;;5064016;28;20555;-93
2020/12/14 09:46:10;;;;;;;14.80;9.00;;;7.90;99.90;;;;;;5074141;28;20497;-93
2020/12/14 09:48:37;;;;;;;10.23;8.70;;;8.00;99.90;;;;;;5066499;28;21023;-92
2020/12/14 09:51:06;;;;;;;9.07;8.17;;;8.30;99.90;;;;;;5055789;28;20582;-92
2020/12/14 09:53:32;;;;;;;10.97;8.97;;;8.80;99.90;;;;;;5061769;28;20532;-92
2020/12/14 09:55:59;;;;;;;14.23;11.03;;;9.30;99.90;;;;;;5082979;28;20443;-93
2020/12/14 09:58:26;;;;;;;10.67;9.57;;;9.40;99.90;;;;;;5086626;28;20448;-93
2020/12/14 10:00:52;;;;;;;12.90;9.23;;;9.50;99.90;;;;;;5074298;28;20470;-91
2020/12/14 10:03:18;;;;;;;12.50;8.40;;;9.60;99.90;;;;;;5074458;28;20475;-92
2020/12/14 10:05:47;;;;;;;10.13;9.10;;;9.60;99.90;;;;;;5073872;28;20501;-91
2020/12/14 10:08:14;;;;;;;10.47;8.80;;;9.90;99.90;;;;;;5063328;28;20934;-92
2020/12/14 10:10:40;;;;;;;11.43;9.23;;;10.30;99.90;;;;;;5054330;28;20503;-92
2020/12/14 10:13:06;;;;;;;10.13;9.03;;;10.60;99.90;;;;;;5054198;28;20942;-92
2020/12/14 10:15:33;;;;;;;9.73;8.80;;;10.40;99.80;;;;;;5053680;28;20889;-92
2020/12/14 10:17:59;;;;;;;8.87;7.83;;;10.30;99.90;;;;;;5054106;28;20452;-92
2020/12/14 10:20:25;;;;;;;9.70;8.33;;;10.00;99.60;;;;;;5054087;28;20991;-91
2020/12/14 10:22:52;;;;;;;9.30;8.20;;;9.60;99.90;;;;;;5059725;28;20940;-91
2020/12/14 10:25:18;;;;;;;9.40;8.50;;;9.50;99.90;;;;;;5074662;28;20487;-91
2020/12/14 10:27:44;;;;;;;9.93;7.70;;;9.50;99.90;;;;;;5073963;28;20448;-92
2020/12/14 10:30:10;;;;;;;9.20;8.23;;;9.50;99.90;;;;;;5074315;28;20479;-93
2020/12/14 10:32:37;;;;;;;10.03;8.87;;;9.40;99.90;;;;;;5071580;28;20454;-92
2020/12/14 10:35:04;;;;;;;10.93;8.53;;;9.10;99.90;;;;;;5053767;28;20448;-92
2020/12/14 10:37:30;;;;;;;11.73;8.50;;;9.20;99.90;;;;;;5054137;28;20455;-93
2020/12/14 10:39:56;;;;;;;12.50;9.43;;;9.30;99.90;;;;;;5075006;28;21056;-92
2020/12/14 10:42:22;;;;;;;14.67;11.20;;;9.50;99.90;;;;;;5070773;28;20437;-93
2020/12/14 10:44:48;;;;;;;16.20;10.17;;;9.50;99.90;;;;;;5053868;28;20488;-92
2020/12/14 10:47:15;;;;;;;13.30;8.27;;;9.60;99.90;;;;;;5053904;28;20440;-92
2020/12/14 10:49:42;;;;;;;12.53;8.80;;;9.60;99.90;;;;;;5073662;28;20853;-92
2020/12/14 10:52:08;;;;;;;12.30;8.33;;;9.60;99.90;;;;;;5073376;28;20470;-92
2020/12/14 10:54:34;;;;;;;9.47;8.17;;;9.70;99.90;;;;;;5074397;28;20529;-92
2020/12/14 10:57:00;;;;;;;10.47;8.40;;;9.70;99.90;;;;;;5074048;28;20451;-92
2020/12/14 10:59:26;;;;;;;13.20;8.03;;;9.60;99.90;;;;;;5072503;28;20477;-92
2020/12/14 11:01:52;;;;;;;10.60;8.70;;;9.40;99.90;;;;;;5073126;28;20455;-91
2020/12/14 11:04:19;;;;;;;9.83;8.30;;;9.30;99.90;;;;;;5056632;28;20471;-91
2020/12/14 11:06:46;;;;;;;13.20;8.97;;;9.20;99.90;;;;;;5053074;28;20812;-92
2020/12/14 11:09:12;;;;;;;10.57;8.90;;;9.30;99.90;;;;;;5062911;28;20447;-92
2020/12/14 11:11:39;;;;;;;8.00;7.20;;;9.20;99.90;;;;;;5060551;28;20468;-92
2020/12/14 11:14:05;;;;;;;10.93;8.20;;;9.20;99.90;;;;;;5052993;28;20507;-91
2020/12/14 11:16:33;;;;;;;8.60;7.27;;;9.30;99.90;;;;;;5054512;28;20802;-91
2020/12/14 11:19:00;;;;;;;14.07;9.70;;;9.40;99.90;;;;;;5053004;28;20480;-92
2020/12/14 11:21:26;;;;;;;9.20;7.50;;;9.50;99.90;;;;;;5056036;28;21004;-92
2020/12/14 11:23:53;;;;;;;10.47;9.47;;;9.40;99.90;;;;;;5052307;28;20476;-92
2020/12/14 11:26:19;;;;;;;10.83;8.70;;;9.60;99.90;;;;;;5054787;28;20479;-93
2020/12/14 11:28:45;;;;;;;11.40;8.77;;;9.60;99.90;;;;;;5072537;28;20948;-91
2020/12/14 11:31:11;;;;;;;9.87;8.20;;;9.50;99.90;;;;;;5072613;28;20468;-93
2020/12/14 11:33:38;;;;;;;8.73;7.83;;;9.40;99.90;;;;;;5066066;28;20440;-93
2020/12/14 11:36:04;;;;;;;11.20;9.00;;;9.30;99.90;;;;;;5069141;28;20444;-92
2020/12/14 11:38:30;;;;;;;8.43;7.60;;;9.30;99.90;;;;;;5097497;28;20936;-93
2020/12/14 11:40:58;;;;;;;11.10;8.23;;;9.40;99.90;;;;;;5094203;28;20442;-91
2020/12/14 11:43:24;;;;;;;10.50;9.40;;;9.40;99.90;;;;;;5088666;28;20562;-91
2020/12/14 11:45:50;;;;;;;10.97;9.03;;;9.50;99.90;;;;;;5072036;28;20493;-91
2020/12/14 11:48:16;;;;;;;10.70;9.00;;;9.50;99.90;;;;;;5066690;28;20498;-92
2020/12/14 11:50:43;;;;;;;12.50;8.47;;;9.60;99.90;;;;;;5068688;28;20471;-91
2020/12/14 11:53:09;;;;;;;11.83;8.83;;;9.70;99.90;;;;;;5073537;28;20504;-91
2020/12/14 11:55:36;;;;;;;12.40;9.53;;;9.70;99.90;;;;;;5073166;28;20443;-92
2020/12/14 11:58:03;;;;;;;10.13;8.50;;;9.70;99.90;;;;;;5054021;28;20926;-92
2020/12/14 12:00:29;;;;;;;11.33;9.07;;;9.50;99.90;;;;;;5052365;28;20867;-92
2020/12/14 12:02:56;;;;;;;9.47;8.50;;;9.40;99.90;;;;;;5070151;28;20467;-92
2020/12/14 12:05:22;;;;;;;16.17;9.80;;;9.40;99.90;;;;;;5072148;28;20510;-91
2020/12/14 12:07:48;;;;;;;14.77;9.40;;;9.50;99.90;;;;;;5056864;28;20941;-91
2020/12/14 12:10:15;;;;;;;12.90;10.03;;;9.70;99.90;;;;;;5070369;28;20478;-91
2020/12/14 12:12:42;;;;;;;9.87;8.87;;;9.90;99.90;;;;;;5072673;28;20443;-90
2020/12/14 12:15:09;;;;;;;10.50;9.00;;;10.00;99.90;;;;;;5073582;28;20439;-91
2020/12/14 12:17:35;;;;;;;10.97;9.23;;;10.10;99.90;;;;;;5068120;28;20924;-91
2020/12/14 12:20:01;;;;;;;13.57;9.37;;;10.30;99.90;;;;;;5071866;28;20467;-91
2020/12/14 12:22:27;;;;;;;11.87;9.27;;;10.50;99.90;;;;;;5071707;28;20459;-92
2020/12/14 12:24:53;;;;;;;10.70;8.70;;;10.60;99.90;;;;;;5071841;28;20487;-92
2020/12/14 12:27:19;;;;;;;11.37;8.90;;;10.50;99.90;;;;;;5059393;28;20992;-91
2020/12/14 12:29:46;;;;;;;10.23;9.17;;;10.70;99.90;;;;;;5052165;28;20519;-92
2020/12/14 12:32:13;;;;;;;13.30;9.80;;;10.70;99.90;;;;;;5052200;28;20436;-92
2020/12/14 12:34:39;;;;;;;10.20;9.03;;;10.80;99.90;;;;;;5057724;28;20861;-92
2020/12/14 12:37:05;;;;;;;13.23;10.73;;;10.70;99.90;;;;;;5072378;28;20932;-92
2020/12/14 12:39:32;;;;;;;11.93;9.87;;;10.70;99.90;;;;;;5069052;28;20464;-93
2020/12/14 12:41:58;;;;;;;10.47;9.47;;;10.70;99.90;;;;;;5051353;28;20456;-92
2020/12/14 12:44:25;;;;;;;11.17;10.07;;;10.70;99.90;;;;;;5052811;28;20492;-92